Portada
METAR-TAF:

METAR-TAF

Aeroports :

Narrabri, Austràlia

latitud: 30-19-09S, longitud: 149-49-38E, altitud: 240 m

Observació

L'informe es va fer fa 43 minuts, a les 14:00 UTC
Vent 10 kt del Est
Temperatura 6°C
Humitat 36%
Pressió 1019 hPa
Visibilitat 10 km o més

METAR: YNBR 161400Z AUTO 09010KT 9999 // NCD 06/M08 Q1019

Hora: 00:43 (14:43 UTC)


TAF: manca

Observacions i pronòstics meteorològics de més de 4000 aeroports (METAR i TAF).

Les estacions disponibles són els punts grocs i vermells al mapa.

Posi el ratolí al punt desitjat per veure el nom de l'estació.

Feu clic per veure les observacions i els pronòstics meteorològics.

Per canviar el mapa: feu clic els botons verds amb una creu de color negre per apropar; al botó verd amb un guió per allunyar la imatge; o en les fletxes verdes per a mapes adjacents.


METAR-TAF: